createdAt,value
2023-01-23T00:02:11.809Z,27.67
2023-01-23T00:04:40.396Z,26.50
2023-01-23T00:07:08.837Z,27.90
2023-01-23T00:09:37.181Z,27.80
2023-01-23T00:12:06.488Z,28.80
2023-01-23T00:14:34.910Z,28.23
2023-01-23T00:17:03.252Z,28.77
2023-01-23T00:19:33.148Z,28.57
2023-01-23T00:22:02.153Z,29.07
2023-01-23T00:24:30.537Z,29.13
2023-01-23T00:26:58.989Z,30.33
2023-01-23T00:29:27.407Z,30.67
2023-01-23T00:31:55.899Z,30.57
2023-01-23T00:34:24.315Z,30.27
2023-01-23T00:36:54.165Z,28.87
2023-01-23T00:39:25.150Z,30.87
2023-01-23T00:41:53.615Z,31.07
2023-01-23T00:44:21.943Z,30.33
2023-01-23T00:46:55.578Z,30.73
2023-01-23T00:49:27.126Z,31.43
2023-01-23T00:51:57.759Z,28.43
2023-01-23T00:54:26.696Z,29.83
2023-01-23T00:56:55.075Z,31.40
2023-01-23T00:59:24.308Z,29.57
2023-01-23T01:01:52.691Z,31.57
2023-01-23T01:04:21.218Z,31.10
2023-01-23T01:06:49.663Z,29.20
2023-01-23T01:09:19.544Z,29.60
2023-01-23T01:11:47.919Z,29.07
2023-01-23T01:14:17.231Z,29.97
2023-01-23T01:16:48.893Z,31.93
2023-01-23T01:19:19.232Z,29.80
2023-01-23T01:21:47.701Z,30.50
2023-01-23T01:24:16.061Z,30.37
2023-01-23T01:26:45.811Z,30.83
2023-01-23T01:29:14.146Z,29.80
2023-01-23T01:31:44.984Z,30.50
2023-01-23T01:34:14.892Z,30.43
2023-01-23T01:36:43.198Z,31.57
2023-01-23T01:39:11.500Z,29.20
2023-01-23T01:41:40.076Z,31.83
2023-01-23T01:44:14.314Z,32.83
2023-01-23T01:46:42.732Z,31.17
2023-01-23T01:49:14.729Z,31.73
2023-01-23T01:51:47.386Z,31.77
2023-01-23T01:54:28.448Z,30.80
2023-01-23T01:57:01.913Z,31.47
2023-01-23T01:59:38.004Z,34.40
2023-01-23T02:02:10.791Z,32.17
2023-01-23T02:04:43.549Z,31.63
2023-01-23T02:07:18.503Z,31.80
2023-01-23T02:09:47.932Z,32.03
2023-01-23T02:12:16.629Z,30.43
2023-01-23T02:14:46.526Z,32.23
2023-01-23T02:17:15.039Z,32.40
2023-01-23T02:19:51.924Z,31.50
2023-01-23T02:22:38.143Z,33.27
2023-01-23T02:25:14.658Z,30.33
2023-01-23T02:27:44.560Z,30.87
2023-01-23T02:30:14.029Z,33.67
2023-01-23T02:32:43.976Z,31.93
2023-01-23T02:35:15.562Z,31.27
2023-01-23T02:37:47.260Z,31.93
2023-01-23T02:40:16.173Z,30.63
2023-01-23T02:42:48.454Z,31.83
2023-01-23T02:45:19.020Z,29.97
2023-01-23T02:47:48.239Z,30.07
2023-01-23T02:50:18.530Z,31.67
2023-01-23T02:52:47.418Z,30.83
2023-01-23T02:55:15.835Z,29.83
2023-01-23T02:57:46.389Z,30.10
2023-01-23T03:00:20.689Z,31.77
2023-01-23T03:02:50.885Z,28.87
2023-01-23T03:05:20.135Z,31.03
2023-01-23T03:07:48.508Z,30.40
2023-01-23T03:10:17.425Z,30.73
2023-01-23T03:12:48.584Z,30.43
2023-01-23T03:15:17.107Z,29.50
2023-01-23T03:17:45.611Z,30.17
2023-01-23T03:20:15.288Z,28.60
2023-01-23T03:22:44.796Z,32.47
2023-01-23T03:25:13.270Z,30.80
2023-01-23T03:27:42.228Z,28.93
2023-01-23T03:30:13.368Z,28.53
2023-01-23T03:32:42.102Z,26.53
2023-01-23T03:35:14.050Z,27.80
2023-01-23T03:37:42.674Z,28.63
2023-01-23T03:40:35.631Z,27.17
2023-01-23T03:43:05.085Z,27.20
2023-01-23T03:45:36.885Z,26.40
2023-01-23T03:48:05.633Z,28.57
2023-01-23T03:50:34.603Z,27.07
2023-01-23T03:53:03.048Z,27.70
2023-01-23T03:55:31.987Z,26.87
2023-01-23T03:58:00.281Z,26.77
2023-01-23T04:00:31.619Z,26.03
2023-01-23T04:03:07.000Z,27.43
2023-01-23T04:05:35.869Z,26.47
2023-01-23T04:08:04.652Z,28.20
2023-01-23T04:10:33.248Z,27.43
2023-01-23T04:13:05.838Z,27.17
2023-01-23T04:15:34.892Z,28.77
2023-01-23T04:18:07.845Z,27.10
2023-01-23T04:20:36.321Z,27.30
2023-01-23T04:23:04.645Z,29.43
2023-01-23T04:25:33.099Z,29.07
2023-01-23T04:28:01.584Z,27.43
2023-01-23T04:30:30.193Z,26.23
2023-01-23T04:33:02.734Z,28.30
2023-01-23T04:35:32.609Z,27.00
2023-01-23T04:38:01.263Z,30.50
2023-01-23T04:40:30.350Z,26.63
2023-01-23T04:43:01.236Z,28.73
2023-01-23T04:45:37.158Z,26.90
2023-01-23T08:15:13.574Z,24.50
2023-01-23T08:18:39.427Z,25.87
2023-01-23T08:21:07.992Z,24.17
2023-01-23T08:23:36.509Z,25.90
2023-01-23T08:26:07.963Z,25.87
2023-01-23T08:28:36.914Z,25.97
2023-01-23T08:31:09.045Z,28.70
2023-01-23T08:33:38.349Z,26.50
2023-01-23T08:36:11.021Z,25.57
2023-01-23T08:38:39.884Z,26.93
2023-01-23T08:41:09.994Z,26.87
2023-01-23T08:56:44.242Z,23.37
2023-01-23T08:59:12.783Z,24.10
2023-01-23T09:01:41.275Z,24.73
2023-01-23T09:04:09.597Z,23.70
2023-01-23T09:06:38.056Z,24.87
2023-01-23T09:09:06.467Z,24.10
2023-01-23T09:11:34.772Z,24.57
2023-01-23T09:14:04.478Z,24.17
2023-01-23T09:16:33.446Z,24.03
2023-01-23T09:19:01.977Z,23.33
2023-01-23T09:21:30.357Z,23.13
2023-01-23T09:23:58.682Z,21.80
2023-01-23T09:26:26.896Z,21.97
2023-01-23T09:28:56.082Z,22.53
2023-01-23T09:31:25.892Z,21.17
2023-01-23T09:33:54.254Z,21.13
2023-01-23T09:36:37.485Z,21.87
2023-01-23T09:39:09.836Z,20.77
2023-01-23T09:41:41.036Z,20.57
2023-01-23T09:44:15.200Z,20.13
2023-01-23T09:46:49.856Z,19.57
2023-01-23T09:49:24.232Z,19.97
2023-01-23T09:51:57.778Z,19.07
2023-01-23T09:54:37.643Z,20.83
2023-01-23T09:57:13.013Z,19.23
2023-01-23T09:59:58.665Z,19.67
2023-01-23T10:02:30.576Z,19.90
2023-01-23T10:05:02.675Z,20.03
2023-01-23T10:07:58.540Z,20.43
2023-01-23T10:10:51.553Z,18.77
2023-01-23T10:13:24.248Z,19.93
2023-01-23T10:16:09.970Z,19.43
2023-01-23T10:18:49.457Z,19.40
2023-01-23T10:21:25.868Z,19.93
2023-01-23T10:24:04.804Z,19.50
2023-01-23T10:26:39.673Z,20.87
2023-01-23T10:29:15.786Z,20.13
2023-01-23T10:31:49.453Z,21.90
2023-01-23T10:34:23.892Z,21.97
2023-01-23T10:37:06.817Z,22.17
2023-01-23T10:39:46.835Z,21.60
2023-01-23T10:42:15.503Z,20.57
2023-01-23T10:44:43.940Z,21.80
2023-01-23T10:47:21.266Z,22.40
2023-01-23T10:49:51.094Z,22.83
2023-01-23T10:52:38.095Z,22.67
2023-01-23T10:55:25.593Z,22.93
2023-01-23T10:58:07.909Z,22.30
2023-01-23T11:00:51.783Z,23.27
2023-01-23T11:03:29.682Z,22.10
2023-01-23T11:06:05.168Z,22.20
2023-01-23T11:08:36.413Z,25.47
2023-01-23T11:11:23.189Z,25.20
2023-01-23T11:14:05.223Z,24.87
2023-01-23T11:16:34.933Z,25.10
2023-01-23T11:19:17.409Z,24.83
2023-01-23T11:21:56.305Z,26.43
2023-01-23T11:24:40.340Z,26.33
2023-01-23T11:27:20.377Z,25.63
2023-01-23T11:30:23.629Z,25.03
2023-01-23T11:32:58.653Z,23.97
2023-01-23T11:35:43.803Z,23.87
2023-01-23T11:38:27.275Z,24.27
2023-01-23T11:40:58.638Z,23.60
2023-01-23T11:43:27.126Z,22.97
2023-01-23T11:46:21.391Z,21.30
2023-01-23T11:59:33.613Z,18.70
2023-01-23T12:06:44.058Z,16.17
2023-01-23T12:09:16.023Z,15.87
2023-01-23T12:12:05.075Z,15.87
2023-01-23T12:24:41.045Z,14.67
2023-01-23T12:27:19.602Z,14.53
2023-01-23T12:30:25.532Z,16.10
2023-01-23T12:33:04.604Z,14.73
2023-01-23T12:35:49.129Z,15.43
2023-01-23T12:38:27.528Z,14.50
2023-01-23T12:41:09.484Z,14.20
2023-01-23T12:43:45.450Z,14.83
2023-01-23T12:46:19.128Z,15.10
2023-01-23T12:48:55.389Z,13.80
2023-01-23T12:51:29.406Z,14.40
2023-01-23T12:54:02.080Z,13.63
2023-01-23T12:56:35.298Z,14.27
2023-01-23T12:59:14.390Z,13.33
2023-01-23T13:02:01.961Z,14.40
2023-01-23T13:04:47.889Z,13.17
2023-01-23T13:07:27.760Z,13.70
2023-01-23T13:10:23.269Z,14.73
2023-01-23T13:12:57.478Z,14.77
2023-01-23T13:15:41.064Z,14.00
2023-01-23T13:18:24.192Z,13.97
2023-01-23T13:21:16.174Z,14.70
2023-01-23T13:23:44.878Z,15.03
2023-01-23T13:26:37.478Z,16.23
2023-01-23T13:29:48.095Z,13.80
2023-01-23T13:32:23.177Z,13.40
2023-01-23T13:34:51.891Z,14.20
2023-01-23T13:37:54.219Z,13.30
2023-01-23T13:40:25.371Z,13.23
2023-01-23T13:42:53.846Z,13.33
2023-01-23T13:45:29.671Z,14.17
2023-01-23T14:24:46.409Z,13.40
2023-01-23T14:27:29.414Z,12.90
2023-01-23T14:29:59.712Z,12.40
2023-01-23T14:32:31.240Z,11.73
2023-01-23T14:35:01.611Z,10.43
2023-01-23T14:37:32.096Z,11.87
2023-01-23T14:40:09.746Z,11.07
2023-01-23T14:42:41.162Z,11.97
2023-01-23T14:45:14.020Z,10.13
2023-01-23T14:47:48.975Z,11.77
2023-01-23T14:50:27.367Z,12.60
2023-01-23T14:52:59.388Z,12.23
2023-01-23T14:55:30.315Z,12.20
2023-01-23T14:58:01.607Z,12.70
2023-01-23T15:00:30.647Z,12.83
2023-01-23T15:02:59.120Z,13.87
2023-01-23T15:05:29.738Z,13.53
2023-01-23T15:07:59.761Z,12.77
2023-01-23T15:10:30.845Z,13.17
2023-01-23T15:13:02.406Z,13.13
2023-01-23T15:15:32.589Z,12.97
2023-01-23T15:18:02.345Z,12.23
2023-01-23T15:20:38.397Z,13.60
2023-01-23T15:23:28.347Z,13.03
2023-01-23T15:26:23.580Z,12.97
2023-01-23T15:28:53.741Z,12.70
2023-01-23T15:31:26.411Z,14.60
2023-01-23T15:33:55.478Z,13.03
2023-01-23T15:36:28.851Z,13.83
2023-01-23T15:39:00.216Z,12.70
2023-01-23T15:41:44.943Z,13.00
2023-01-23T15:44:15.696Z,12.10
2023-01-23T15:46:44.312Z,13.17
2023-01-23T15:49:24.525Z,13.67
2023-01-23T15:51:56.787Z,13.43
2023-01-23T15:54:29.972Z,13.97
2023-01-23T15:57:07.098Z,23.40
2023-01-23T15:59:37.687Z,18.43
2023-01-23T16:02:08.227Z,20.60
2023-01-23T16:04:39.557Z,20.57
2023-01-23T16:07:25.264Z,20.40
2023-01-23T16:09:55.322Z,19.30
2023-01-23T16:12:29.552Z,19.43
2023-01-23T16:14:58.627Z,18.93
2023-01-23T16:17:27.301Z,18.57
2023-01-23T16:19:55.990Z,18.00
2023-01-23T16:22:29.549Z,18.80
2023-01-23T16:24:59.112Z,17.97
2023-01-23T16:27:28.383Z,18.17
2023-01-23T16:29:57.241Z,19.20
2023-01-23T16:32:26.308Z,19.37
2023-01-23T16:34:54.988Z,18.37
2023-01-23T16:37:23.399Z,20.13
2023-01-23T16:39:53.293Z,21.00
2023-01-23T16:42:25.068Z,21.37
2023-01-23T16:44:53.637Z,19.97
2023-01-23T16:47:22.116Z,23.40
2023-01-23T16:49:52.974Z,21.33
2023-01-23T16:52:25.568Z,20.73
2023-01-23T16:54:56.604Z,21.17
2023-01-23T16:57:25.970Z,21.70
2023-01-23T16:59:56.509Z,23.83
2023-01-23T17:02:30.480Z,22.87
2023-01-23T17:04:59.076Z,21.43
2023-01-23T17:07:27.401Z,22.60
2023-01-23T17:09:57.291Z,22.67
2023-01-23T17:12:30.238Z,22.77
2023-01-23T17:14:58.950Z,21.90
2023-01-23T17:17:32.482Z,19.60
2023-01-23T17:20:02.333Z,22.13
2023-01-23T17:22:35.121Z,20.97
2023-01-23T17:25:05.604Z,20.93
2023-01-23T17:27:44.303Z,46.33
2023-01-23T17:30:16.851Z,51.10
2023-01-23T17:32:48.431Z,49.87
2023-01-23T17:35:24.423Z,31.03
2023-01-23T17:37:53.431Z,53.13
2023-01-23T17:40:23.444Z,32.90
2023-01-23T17:42:53.873Z,27.43
2023-01-23T17:45:25.444Z,29.27
2023-01-23T17:47:56.175Z,35.50
2023-01-23T17:50:26.935Z,48.27
2023-01-23T17:52:56.077Z,25.87
2023-01-23T17:55:28.940Z,20.43
2023-01-23T17:57:57.425Z,23.03
2023-01-23T18:00:27.212Z,41.57
2023-01-23T18:02:59.498Z,28.17
2023-01-23T18:05:28.818Z,25.47
2023-01-23T18:07:57.331Z,20.77
2023-01-23T18:10:29.850Z,19.30
2023-01-23T18:13:07.043Z,18.30
2023-01-23T18:15:41.646Z,19.03
2023-01-23T18:18:24.302Z,18.87
2023-01-23T18:20:54.942Z,18.73
2023-01-23T18:23:24.673Z,18.10
2023-01-23T18:26:03.104Z,20.27
2023-01-23T18:28:37.048Z,20.50
2023-01-23T18:31:13.752Z,19.67
2023-01-23T18:34:08.313Z,18.67
2023-01-23T18:36:48.639Z,19.97
2023-01-23T18:39:35.029Z,20.20
2023-01-23T18:42:16.373Z,18.63
2023-01-23T18:44:53.867Z,19.97
2023-01-23T18:47:22.956Z,19.43
2023-01-23T18:49:51.906Z,19.07
2023-01-23T18:52:25.751Z,19.87
2023-01-23T18:55:03.730Z,19.90
2023-01-23T18:58:03.486Z,19.17
2023-01-23T19:00:39.614Z,20.70
2023-01-23T19:03:14.669Z,25.30
2023-01-23T19:05:44.168Z,19.00
2023-01-23T19:08:28.114Z,20.23
2023-01-23T19:11:01.749Z,20.30
2023-01-23T19:13:43.744Z,21.53
2023-01-23T19:16:18.663Z,21.63
2023-01-23T19:18:48.397Z,20.57
2023-01-23T19:21:23.616Z,20.57
2023-01-23T19:23:59.453Z,21.00
2023-01-23T19:26:30.825Z,23.70
2023-01-23T19:29:19.250Z,22.33
2023-01-23T19:32:04.261Z,22.83
2023-01-23T19:34:33.728Z,23.60
2023-01-23T19:37:02.265Z,23.07
2023-01-23T19:39:33.693Z,25.37
2023-01-23T19:42:02.177Z,26.00
2023-01-23T19:44:33.308Z,27.13
2023-01-23T19:47:03.542Z,31.47
2023-01-23T19:49:32.021Z,29.03
2023-01-23T19:52:00.417Z,31.33
2023-01-23T19:54:29.095Z,32.43
2023-01-23T19:56:57.542Z,28.23
2023-01-23T19:59:27.384Z,25.83
2023-01-23T20:01:57.322Z,27.93
2023-01-23T20:04:25.903Z,24.90
2023-01-23T20:06:55.047Z,24.80
2023-01-23T20:09:23.929Z,26.40
2023-01-23T20:11:52.729Z,25.63
2023-01-23T20:14:22.278Z,23.87
2023-01-23T20:16:50.874Z,23.40
2023-01-23T20:19:20.891Z,18.77
2023-01-23T20:21:49.620Z,20.60
2023-01-23T20:24:18.482Z,21.07
2023-01-23T20:26:47.540Z,20.23
2023-01-23T20:29:16.435Z,19.80
2023-01-23T20:31:45.185Z,18.77
2023-01-23T20:34:14.028Z,19.60
2023-01-23T20:36:44.413Z,20.37
2023-01-23T20:39:13.795Z,19.33
2023-01-23T20:41:42.719Z,20.57
2023-01-23T20:44:11.823Z,20.60
2023-01-23T20:46:40.363Z,21.03
2023-01-23T20:49:09.089Z,22.53
2023-01-23T20:51:37.548Z,21.40
2023-01-23T20:54:06.688Z,21.93
2023-01-23T20:56:35.920Z,22.33
2023-01-23T20:59:19.310Z,23.17
2023-01-23T21:02:06.377Z,22.03
2023-01-23T21:04:36.443Z,23.47
2023-01-23T21:07:06.099Z,25.00
2023-01-23T21:09:36.158Z,25.93
2023-01-23T21:12:04.922Z,25.83
2023-01-23T21:14:33.466Z,26.87
2023-01-23T21:17:01.998Z,24.60
2023-01-23T21:19:30.795Z,26.97
2023-01-23T21:21:59.950Z,26.40
2023-01-23T21:24:28.700Z,27.07
2023-01-23T21:26:58.616Z,26.60
2023-01-23T21:29:27.275Z,26.93
2023-01-23T21:31:57.653Z,26.07
2023-01-23T21:34:27.721Z,25.73
2023-01-23T21:36:56.193Z,28.33
2023-01-23T21:39:24.650Z,27.53
2023-01-23T21:41:53.173Z,27.40
2023-01-23T21:44:23.199Z,25.77
2023-01-23T21:46:51.656Z,25.83
2023-01-23T21:49:20.274Z,26.50
2023-01-23T21:51:48.962Z,26.17
2023-01-23T21:54:17.651Z,24.73
2023-01-23T21:56:46.521Z,25.17
2023-01-23T21:59:15.576Z,25.70
2023-01-23T22:01:45.791Z,25.00
2023-01-23T22:04:18.313Z,25.30
2023-01-23T22:06:47.678Z,26.60
2023-01-23T22:09:18.592Z,25.53
2023-01-23T22:11:48.579Z,25.77
2023-01-23T22:14:17.635Z,26.60
2023-01-23T22:16:51.360Z,24.93
2023-01-23T22:19:24.707Z,24.77
2023-01-23T22:21:54.371Z,26.07
2023-01-23T22:24:22.901Z,26.07
2023-01-23T22:26:51.485Z,24.87
2023-01-23T22:29:19.942Z,26.13
2023-01-23T22:31:48.601Z,24.80
2023-01-23T22:34:18.517Z,26.17
2023-01-23T22:36:46.976Z,25.80
2023-01-23T22:39:17.046Z,25.70
2023-01-23T22:41:46.459Z,23.83
2023-01-23T22:44:15.311Z,25.70
2023-01-23T22:46:43.880Z,24.37
2023-01-23T22:49:12.620Z,24.53
2023-01-23T22:51:42.634Z,23.37
2023-01-23T22:54:11.200Z,24.07
2023-01-23T22:56:40.068Z,21.77
2023-01-23T22:59:08.460Z,24.83
2023-01-23T23:01:37.541Z,22.30
2023-01-23T23:04:06.376Z,21.80
2023-01-23T23:06:34.793Z,23.57
2023-01-23T23:09:05.513Z,23.37
2023-01-23T23:11:35.992Z,22.67
2023-01-23T23:14:04.644Z,21.20
2023-01-23T23:16:33.544Z,22.73
2023-01-23T23:19:04.189Z,21.50
2023-01-23T23:21:36.238Z,22.07
2023-01-23T23:24:08.116Z,21.97
2023-01-23T23:26:36.980Z,21.97
2023-01-23T23:29:06.433Z,20.60
2023-01-23T23:31:35.117Z,21.33
2023-01-23T23:34:03.809Z,20.40
2023-01-23T23:36:32.442Z,19.80
2023-01-23T23:39:00.979Z,19.80
2023-01-23T23:41:30.936Z,19.87
2023-01-23T23:43:59.263Z,18.93
2023-01-23T23:46:27.738Z,18.37
2023-01-23T23:48:56.136Z,18.83
2023-01-23T23:51:26.669Z,18.80
2023-01-23T23:53:55.765Z,19.00
2023-01-23T23:56:27.512Z,19.20
2023-01-23T23:58:57.522Z,17.87
